Time;durP1;ratioP1;P1;durP2;ratioP2;P2;SDS_P1;SDS_P2;PMS_P1;PMS_P2;Temp;Humidity;BMP_temperature;BMP_pressure;BME280_temperature;BME280_humidity;BME280_pressure;Samples;Min_cycle;Max_cycle;Signal;HPM_P1;HPM_P2
2023/07/02 00:00:56;;;;;;;3.97;1.63;;;18.00;99.90;;;;;;5112489;28;20458;-54
2023/07/02 00:03:21;;;;;;;2.15;1.67;;;18.00;99.90;;;;;;5112320;28;20030;-54
2023/07/02 00:05:50;;;;;;;3.85;1.92;;;18.00;99.90;;;;;;5111409;28;20413;-52
2023/07/02 00:08:16;;;;;;;5.70;1.90;;;17.90;99.90;;;;;;5112351;28;20028;-55
2023/07/02 00:10:43;;;;;;;4.53;1.40;;;17.90;99.90;;;;;;5094043;28;20419;-51
2023/07/02 00:13:08;;;;;;;2.90;2.10;;;17.90;99.90;;;;;;5112201;28;20016;-52
2023/07/02 00:15:35;;;;;;;5.28;2.17;;;17.90;99.90;;;;;;5111427;28;20337;-51
2023/07/02 00:18:00;;;;;;;3.22;1.70;;;18.00;99.90;;;;;;5093800;28;20169;-55
2023/07/02 00:20:26;;;;;;;3.60;1.55;;;18.00;99.90;;;;;;5093878;28;20114;-55
2023/07/02 00:22:51;;;;;;;1.75;1.65;;;18.00;99.90;;;;;;5112101;28;20024;-54
2023/07/02 00:25:17;;;;;;;3.30;1.63;;;18.00;99.90;;;;;;5111571;28;20064;-52
2023/07/02 00:27:42;;;;;;;4.03;1.80;;;18.00;99.90;;;;;;5111969;28;20024;-50
2023/07/02 00:30:08;;;;;;;5.18;1.70;;;18.10;99.90;;;;;;5112090;28;20019;-51
2023/07/02 00:32:34;;;;;;;3.50;1.55;;;18.10;99.90;;;;;;5111992;28;20020;-54
2023/07/02 00:34:59;;;;;;;4.90;2.08;;;18.00;99.90;;;;;;5111497;28;20039;-52
2023/07/02 00:37:25;;;;;;;2.63;2.00;;;17.90;99.90;;;;;;5111028;28;20401;-51
2023/07/02 00:39:52;;;;;;;2.60;2.05;;;17.90;99.90;;;;;;5111992;28;20535;-53
2023/07/02 00:42:17;;;;;;;3.97;1.55;;;17.80;99.90;;;;;;5111849;28;20030;-51
2023/07/02 00:44:43;;;;;;;4.15;1.75;;;17.80;99.90;;;;;;5111495;28;20395;-53
2023/07/02 00:47:10;;;;;;;6.15;1.90;;;17.70;99.90;;;;;;5111517;28;20023;-53
2023/07/02 00:49:36;;;;;;;3.58;1.90;;;17.70;99.90;;;;;;5093531;28;20046;-51
2023/07/02 00:52:01;;;;;;;3.38;1.83;;;17.60;99.90;;;;;;5111856;28;20031;-51
2023/07/02 00:54:30;;;;;;;4.25;1.80;;;17.60;99.90;;;;;;5111384;28;20024;-55
2023/07/02 00:56:56;;;;;;;4.70;1.73;;;17.50;99.90;;;;;;5111082;28;20020;-56
2023/07/02 00:59:22;;;;;;;1.83;1.35;;;17.40;99.90;;;;;;5093180;28;20458;-53
2023/07/02 01:01:50;;;;;;;3.05;1.75;;;17.30;99.90;;;;;;5111770;28;20020;-54
2023/07/02 01:04:19;;;;;;;6.80;1.95;;;17.30;99.90;;;;;;5111665;28;20509;-56
2023/07/02 01:06:45;;;;;;;5.75;2.25;;;17.20;99.90;;;;;;5111160;28;20019;-54
2023/07/02 01:09:11;;;;;;;3.38;2.03;;;17.00;99.90;;;;;;5111542;28;20048;-54
2023/07/02 01:11:55;;;;;;;3.72;1.70;;;16.90;99.90;;;;;;5093149;28;20027;-54
2023/07/02 01:14:37;;;;;;;2.05;1.85;;;16.80;99.90;;;;;;5111164;28;20147;-51
2023/07/02 01:17:04;;;;;;;4.68;1.90;;;16.70;99.90;;;;;;5111075;28;20035;-51
2023/07/02 01:19:52;;;;;;;2.58;2.00;;;16.60;99.90;;;;;;5093256;28;20020;-52
2023/07/02 01:22:23;;;;;;;3.72;2.00;;;16.50;99.90;;;;;;5111575;28;20475;-52
2023/07/02 01:24:49;;;;;;;5.93;2.38;;;16.40;99.90;;;;;;5111013;28;20027;-52
2023/07/02 01:27:15;;;;;;;2.70;1.80;;;16.40;99.90;;;;;;5111634;28;20027;-54
2023/07/02 01:29:42;;;;;;;3.33;2.28;;;16.20;99.90;;;;;;5111687;28;20027;-51
2023/07/02 01:32:08;;;;;;;3.42;2.20;;;16.20;99.90;;;;;;5093285;28;20077;-56
2023/07/02 01:34:34;;;;;;;5.25;2.20;;;16.10;99.90;;;;;;5111080;28;20394;-56
2023/07/02 01:37:00;;;;;;;3.40;1.90;;;16.10;99.90;;;;;;5092731;28;20028;-53
2023/07/02 01:39:25;;;;;;;4.53;2.42;;;16.00;99.90;;;;;;5111377;28;20059;-55
2023/07/02 01:41:52;;;;;;;5.70;2.25;;;16.00;99.90;;;;;;5111321;28;20028;-57
2023/07/02 01:44:19;;;;;;;2.30;1.65;;;16.00;99.90;;;;;;5110884;28;20440;-51
2023/07/02 01:46:48;;;;;;;2.55;2.13;;;15.90;99.90;;;;;;5110996;28;20019;-55
2023/07/02 01:49:18;;;;;;;3.42;2.05;;;15.80;99.90;;;;;;5094630;28;20019;-55
2023/07/02 01:51:51;;;;;;;6.00;2.78;;;15.70;99.90;;;;;;5096635;28;20114;-52
2023/07/02 01:54:18;;;;;;;6.00;2.17;;;15.70;99.90;;;;;;5114396;28;20024;-55
2023/07/02 01:56:44;;;;;;;3.60;1.83;;;15.70;99.90;;;;;;5096048;28;20016;-51
2023/07/02 01:59:09;;;;;;;3.03;2.03;;;15.70;99.90;;;;;;5114994;28;20046;-56
2023/07/02 02:01:35;;;;;;;3.00;1.88;;;15.70;99.90;;;;;;5114892;28;20023;-51
2023/07/02 02:04:00;;;;;;;3.35;2.35;;;15.70;99.90;;;;;;5114781;28;20106;-50
2023/07/02 02:06:26;;;;;;;4.35;2.30;;;15.70;99.90;;;;;;5113858;28;20019;-53
2023/07/02 02:08:51;;;;;;;4.25;2.40;;;15.70;99.90;;;;;;5096268;28;20031;-55
2023/07/02 02:11:17;;;;;;;3.15;2.40;;;15.70;99.90;;;;;;5096217;28;20016;-52
2023/07/02 02:13:42;;;;;;;4.65;3.03;;;15.70;99.90;;;;;;5114511;28;20012;-51
2023/07/02 02:16:08;;;;;;;11.23;3.35;;;15.80;99.90;;;;;;5095324;28;20126;-50
2023/07/02 02:18:33;;;;;;;5.03;2.30;;;15.80;99.90;;;;;;5096247;28;20031;-52
2023/07/02 02:20:59;;;;;;;7.60;2.85;;;15.80;99.90;;;;;;5114413;28;20030;-51
2023/07/02 02:23:24;;;;;;;4.88;2.35;;;15.80;99.90;;;;;;5114189;28;20035;-53
2023/07/02 02:25:50;;;;;;;8.20;2.50;;;15.80;99.90;;;;;;5095105;28;20141;-51
2023/07/02 02:28:15;;;;;;;7.45;2.63;;;15.70;99.90;;;;;;5114208;28;20024;-50
2023/07/02 02:30:41;;;;;;;5.32;2.97;;;15.70;99.90;;;;;;5114153;28;20114;-54
2023/07/02 02:33:06;;;;;;;5.20;2.85;;;15.70;99.90;;;;;;5114223;28;20479;-55
2023/07/02 02:35:32;;;;;;;5.05;3.22;;;15.70;99.90;;;;;;5113346;28;20483;-54
2023/07/02 02:37:57;;;;;;;6.32;3.50;;;15.60;99.90;;;;;;5095553;28;20032;-51
2023/07/02 02:40:23;;;;;;;6.63;3.25;;;15.50;99.90;;;;;;5114047;28;20024;-51
2023/07/02 02:42:48;;;;;;;5.60;3.53;;;15.50;99.90;;;;;;5114214;28;20067;-51
2023/07/02 02:45:14;;;;;;;6.55;3.45;;;15.50;99.90;;;;;;5113142;28;20387;-53
2023/07/02 02:47:40;;;;;;;6.90;3.50;;;15.50;99.90;;;;;;5113827;28;20023;-53
2023/07/02 02:50:06;;;;;;;8.10;3.58;;;15.50;99.90;;;;;;5113848;28;20020;-52
2023/07/02 02:52:31;;;;;;;8.07;4.10;;;15.40;99.90;;;;;;5113662;28;20027;-53
2023/07/02 02:54:57;;;;;;;8.10;4.05;;;15.40;99.90;;;;;;5113257;28;20661;-54
2023/07/02 02:57:22;;;;;;;9.48;4.65;;;15.40;99.90;;;;;;5113329;28;20069;-51
2023/07/02 02:59:48;;;;;;;7.20;4.00;;;15.40;99.90;;;;;;5113244;28;20513;-56
2023/07/02 03:02:13;;;;;;;6.15;4.03;;;15.40;99.90;;;;;;5095723;28;20024;-55
2023/07/02 03:04:44;;;;;;;7.70;3.90;;;15.40;99.90;;;;;;5094900;28;20114;-52
2023/07/02 03:07:09;;;;;;;9.13;4.32;;;15.40;99.90;;;;;;5113069;28;20098;-51
2023/07/02 03:09:35;;;;;;;7.13;4.15;;;15.30;99.90;;;;;;5113312;28;20088;-51
2023/07/02 03:12:00;;;;;;;8.27;4.65;;;15.20;99.90;;;;;;5113308;28;20024;-50
2023/07/02 03:14:26;;;;;;;9.00;4.45;;;15.20;99.90;;;;;;5112989;28;20065;-55
2023/07/02 03:16:51;;;;;;;6.07;4.10;;;15.20;99.90;;;;;;5112828;28;20039;-52
2023/07/02 03:19:17;;;;;;;9.20;4.47;;;15.20;99.90;;;;;;5078047;28;20024;-54
2023/07/02 03:21:43;;;;;;;5.85;3.72;;;15.20;99.90;;;;;;5113190;28;20019;-56
2023/07/02 03:24:13;;;;;;;12.70;4.32;;;15.10;99.90;;;;;;5113051;28;20024;-52
2023/07/02 03:26:39;;;;;;;8.25;4.25;;;15.10;99.90;;;;;;5112327;28;20021;-56
2023/07/02 03:29:06;;;;;;;6.03;3.90;;;15.20;99.90;;;;;;5094725;28;20429;-55
2023/07/02 03:31:31;;;;;;;8.10;4.13;;;15.20;99.90;;;;;;5113004;28;20026;-54
2023/07/02 03:33:57;;;;;;;9.00;3.92;;;15.20;99.90;;;;;;5112892;28;20011;-51
2023/07/02 03:36:22;;;;;;;14.52;4.82;;;15.20;99.90;;;;;;5112012;28;20028;-55
2023/07/02 03:38:48;;;;;;;9.75;5.55;;;15.20;99.90;;;;;;5094601;28;20562;-55
2023/07/02 03:41:13;;;;;;;9.75;4.57;;;15.20;99.90;;;;;;5112723;28;20123;-52
2023/07/02 03:43:39;;;;;;;9.77;4.28;;;15.30;99.90;;;;;;5112824;28;20503;-56
2023/07/02 03:46:04;;;;;;;5.95;3.70;;;15.30;99.90;;;;;;5093200;28;20479;-55
2023/07/02 03:48:30;;;;;;;10.20;4.32;;;15.40;99.90;;;;;;5112802;28;20019;-57
2023/07/02 03:50:55;;;;;;;6.72;3.90;;;15.40;99.90;;;;;;5094326;28;20080;-54
2023/07/02 03:53:21;;;;;;;7.38;4.15;;;15.40;99.90;;;;;;5112529;28;20495;-56
2023/07/02 03:55:46;;;;;;;13.38;4.72;;;15.40;99.90;;;;;;5111715;28;20062;-53
2023/07/02 03:58:12;;;;;;;7.93;4.43;;;15.50;99.90;;;;;;5094308;28;20023;-54
2023/07/02 04:00:38;;;;;;;11.18;4.35;;;15.60;99.90;;;;;;5112508;28;20551;-53
2023/07/02 04:03:04;;;;;;;10.88;4.75;;;15.60;99.90;;;;;;5112353;28;20030;-54
2023/07/02 04:05:29;;;;;;;5.32;4.25;;;15.60;99.90;;;;;;5111568;28;20040;-55
2023/07/02 04:07:55;;;;;;;9.95;4.38;;;15.50;99.90;;;;;;5112159;28;20483;-52
2023/07/02 04:10:20;;;;;;;8.68;4.55;;;15.60;99.90;;;;;;5112281;28;20019;-52
2023/07/02 04:12:46;;;;;;;7.70;4.30;;;15.50;99.90;;;;;;5111552;28;20126;-53
2023/07/02 04:15:11;;;;;;;8.35;4.30;;;15.60;99.90;;;;;;5111617;28;20117;-54
2023/07/02 04:17:37;;;;;;;5.55;4.30;;;15.60;99.90;;;;;;5112755;28;20046;-55
2023/07/02 04:20:03;;;;;;;10.93;5.18;;;15.60;99.90;;;;;;5095060;28;20020;-54
2023/07/02 04:22:29;;;;;;;12.95;5.00;;;15.60;99.90;;;;;;5112540;28;20032;-54
2023/07/02 04:24:55;;;;;;;6.70;4.57;;;15.70;99.90;;;;;;5112061;28;20399;-56
2023/07/02 04:27:21;;;;;;;8.32;4.70;;;15.70;99.90;;;;;;5112078;28;20491;-53
2023/07/02 04:29:47;;;;;;;8.05;5.07;;;15.80;99.90;;;;;;5112098;28;20108;-57
2023/07/02 04:32:12;;;;;;;9.25;5.40;;;15.80;99.90;;;;;;5112070;28;20016;-54
2023/07/02 04:34:38;;;;;;;12.45;5.07;;;15.80;99.90;;;;;;5111598;28;20064;-53
2023/07/02 04:37:04;;;;;;;10.98;4.55;;;16.00;99.90;;;;;;5093268;28;20092;-53
2023/07/02 04:39:30;;;;;;;10.85;5.38;;;16.00;99.90;;;;;;5111975;28;20043;-55
2023/07/02 04:41:56;;;;;;;11.27;5.05;;;16.10;99.90;;;;;;5111934;28;20024;-54
2023/07/02 04:44:29;;;;;;;7.35;5.35;;;16.10;99.90;;;;;;5093217;28;20035;-56
2023/07/02 04:47:00;;;;;;;9.95;4.95;;;16.30;99.90;;;;;;5093336;28;20011;-52
2023/07/02 04:49:26;;;;;;;9.82;4.05;;;16.30;99.90;;;;;;5111723;28;20024;-53
2023/07/02 04:51:53;;;;;;;9.18;4.90;;;16.40;99.90;;;;;;5111857;28;20072;-54
2023/07/02 04:54:22;;;;;;;8.18;5.15;;;16.50;99.90;;;;;;5111325;28;20026;-52
2023/07/02 04:56:48;;;;;;;14.52;5.60;;;16.70;99.90;;;;;;5093201;28;20243;-54
2023/07/02 04:59:15;;;;;;;7.35;4.75;;;16.80;99.90;;;;;;5111851;28;20106;-55
2023/07/02 05:01:40;;;;;;;9.02;5.53;;;16.90;99.90;;;;;;5093534;28;20028;-55
2023/07/02 05:04:06;;;;;;;6.72;4.18;;;16.90;99.90;;;;;;5111612;28;20390;-56
2023/07/02 05:06:32;;;;;;;10.80;5.53;;;17.00;99.90;;;;;;5110830;28;20038;-52
2023/07/02 05:08:57;;;;;;;10.70;4.70;;;17.00;99.90;;;;;;5111866;28;20028;-51
2023/07/02 05:11:23;;;;;;;17.83;6.00;;;17.10;99.90;;;;;;5111669;28;20046;-55
2023/07/02 05:13:48;;;;;;;11.27;4.95;;;17.10;99.90;;;;;;5111673;28;20035;-54
2023/07/02 05:16:14;;;;;;;8.13;5.47;;;17.10;99.90;;;;;;5111575;28;20495;-57
2023/07/02 05:18:40;;;;;;;7.63;4.90;;;17.00;99.90;;;;;;5111615;28;20032;-54
2023/07/02 05:21:06;;;;;;;11.25;5.78;;;17.10;99.90;;;;;;5111586;28;20018;-55
2023/07/02 05:23:31;;;;;;;11.77;6.18;;;17.10;99.90;;;;;;5114090;28;20031;-56
2023/07/02 05:25:57;;;;;;;7.00;5.45;;;17.10;99.90;;;;;;5114646;28;20028;-56
2023/07/02 05:28:23;;;;;;;12.90;5.72;;;17.00;99.90;;;;;;5115411;28;20027;-56
2023/07/02 05:30:49;;;;;;;14.30;6.43;;;17.00;99.90;;;;;;5097080;28;20092;-56
2023/07/02 05:33:14;;;;;;;11.65;6.40;;;17.00;99.90;;;;;;5115422;28;20483;-51
2023/07/02 05:35:40;;;;;;;10.98;5.93;;;17.10;99.90;;;;;;5096156;28;20024;-52
2023/07/02 05:38:05;;;;;;;10.90;5.60;;;17.10;99.90;;;;;;5115384;28;20023;-54
2023/07/02 05:40:31;;;;;;;8.95;5.88;;;17.10;99.90;;;;;;5115292;28;20024;-53
2023/07/02 05:42:56;;;;;;;9.88;5.65;;;17.10;99.90;;;;;;5115477;28;20027;-52
2023/07/02 05:45:23;;;;;;;14.23;6.45;;;17.20;99.90;;;;;;5114401;28;20027;-53
2023/07/02 05:47:49;;;;;;;12.93;6.18;;;17.30;99.90;;;;;;5114985;28;20022;-54
2023/07/02 05:50:14;;;;;;;10.50;6.22;;;17.30;99.90;;;;;;5114963;28;20015;-55
2023/07/02 05:52:40;;;;;;;10.45;6.10;;;17.40;99.90;;;;;;5115009;28;20031;-57
2023/07/02 05:55:10;;;;;;;11.98;6.38;;;17.30;99.90;;;;;;5114675;28;20607;-55
2023/07/02 05:57:36;;;;;;;13.15;6.35;;;17.40;99.90;;;;;;5114789;28;20457;-51
2023/07/02 06:00:02;;;;;;;14.43;7.15;;;17.50;99.90;;;;;;5096513;28;20487;-52
2023/07/02 06:02:27;;;;;;;13.27;6.15;;;17.60;99.90;;;;;;5096299;28;20034;-55
2023/07/02 06:04:53;;;;;;;9.02;6.45;;;17.80;99.90;;;;;;5114111;28;20418;-51
2023/07/02 06:07:18;;;;;;;13.93;6.85;;;17.90;99.90;;;;;;5114519;28;20103;-54
2023/07/02 06:09:44;;;;;;;9.88;6.70;;;18.20;99.90;;;;;;5114675;28;20519;-54
2023/07/02 06:12:09;;;;;;;12.00;6.38;;;18.80;99.90;;;;;;5114653;28;20089;-51
2023/07/02 06:14:35;;;;;;;15.90;8.27;;;19.60;99.90;;;;;;5114192;28;20379;-57
2023/07/02 06:17:00;;;;;;;20.73;8.43;;;20.30;99.90;;;;;;5095568;28;20031;-53
2023/07/02 06:19:26;;;;;;;13.55;8.02;;;21.00;99.90;;;;;;5096080;28;20392;-53
2023/07/02 06:21:51;;;;;;;12.18;7.60;;;21.40;99.90;;;;;;5114430;28;20015;-56
2023/07/02 06:24:17;;;;;;;18.70;8.73;;;21.20;99.90;;;;;;5114353;28;20431;-52
2023/07/02 06:26:42;;;;;;;21.63;8.98;;;20.90;99.90;;;;;;5113377;28;20105;-53
2023/07/02 06:29:08;;;;;;;13.25;8.18;;;20.50;99.90;;;;;;5114240;28;20148;-53
2023/07/02 06:31:33;;;;;;;18.58;10.20;;;20.20;99.90;;;;;;5114019;28;20020;-54
2023/07/02 06:33:59;;;;;;;13.75;9.13;;;19.90;99.90;;;;;;5113407;28;20027;-52
2023/07/02 06:36:24;;;;;;;12.77;8.52;;;19.60;99.90;;;;;;5113140;28;20038;-53
2023/07/02 06:38:50;;;;;;;15.57;9.55;;;19.30;99.90;;;;;;5114092;28;20031;-55
2023/07/02 06:41:15;;;;;;;15.85;9.40;;;19.10;99.90;;;;;;5113964;28;20020;-55
2023/07/02 06:43:44;;;;;;;16.85;9.82;;;19.00;99.90;;;;;;5112033;28;20111;-54
2023/07/02 06:46:11;;;;;;;19.48;10.50;;;18.90;99.90;;;;;;5112944;28;20104;-56
2023/07/02 06:48:37;;;;;;;17.83;9.80;;;18.80;99.90;;;;;;5113872;28;20028;-57
2023/07/02 06:51:02;;;;;;;17.48;10.80;;;18.80;99.90;;;;;;5113911;28;20027;-56
2023/07/02 06:53:28;;;;;;;19.27;10.02;;;18.70;99.90;;;;;;5113822;28;20044;-50
2023/07/02 06:55:53;;;;;;;19.02;10.13;;;18.70;99.90;;;;;;5112886;28;20032;-55
2023/07/02 06:58:19;;;;;;;21.80;10.52;;;18.80;99.90;;;;;;5113826;28;20506;-55
2023/07/02 07:00:45;;;;;;;19.08;9.88;;;18.80;99.90;;;;;;5113564;28;20034;-54
2023/07/02 07:03:10;;;;;;;19.15;10.23;;;19.00;99.90;;;;;;5113587;28;20023;-55
2023/07/02 07:05:36;;;;;;;14.90;10.05;;;19.00;99.90;;;;;;5112732;28;20032;-55
2023/07/02 07:08:01;;;;;;;19.10;9.82;;;19.00;99.90;;;;;;5113443;28;20459;-52
2023/07/02 07:10:28;;;;;;;21.80;10.40;;;19.10;99.90;;;;;;5113543;28;20383;-54
2023/07/02 07:12:53;;;;;;;18.80;9.88;;;19.10;99.90;;;;;;5113386;28;20392;-55
2023/07/02 07:15:19;;;;;;;18.02;10.18;;;19.10;99.90;;;;;;5112588;28;20035;-51
2023/07/02 07:17:44;;;;;;;16.10;10.20;;;19.40;99.90;;;;;;5113267;28;20415;-55
2023/07/02 07:20:10;;;;;;;13.57;9.23;;;20.40;99.90;;;;;;5113259;28;20096;-53
2023/07/02 07:22:36;;;;;;;17.80;10.10;;;22.20;99.90;;;;;;5113114;28;20034;-54
2023/07/02 07:25:01;;;;;;;16.90;9.70;;;24.00;98.50;;;;;;5112609;28;20391;-53
2023/07/02 07:27:27;;;;;;;18.10;10.38;;;25.70;95.40;;;;;;5112704;28;20024;-52
2023/07/02 07:29:52;;;;;;;15.00;9.77;;;27.30;93.30;;;;;;5112987;28;20540;-51
2023/07/02 07:32:20;;;;;;;17.35;8.98;;;28.40;91.00;;;;;;5113037;28;20034;-56
2023/07/02 07:34:46;;;;;;;17.40;10.18;;;28.10;88.00;;;;;;5112518;28;20521;-55
2023/07/02 07:37:11;;;;;;;14.13;9.05;;;27.50;89.50;;;;;;5108994;28;20055;-52
2023/07/02 07:39:37;;;;;;;15.93;9.93;;;26.30;90.50;;;;;;5102102;28;20043;-55
2023/07/02 07:42:03;;;;;;;16.83;9.88;;;25.40;91.30;;;;;;5112870;28;20373;-53
2023/07/02 07:44:28;;;;;;;16.20;9.77;;;24.50;92.30;;;;;;5111805;28;20027;-56
2023/07/02 07:46:55;;;;;;;15.80;10.05;;;24.00;93.40;;;;;;5107772;28;20100;-54
2023/07/02 07:49:21;;;;;;;17.33;9.90;;;23.60;94.00;;;;;;5090968;28;20027;-56
2023/07/02 07:51:47;;;;;;;17.67;10.23;;;23.30;94.60;;;;;;5107714;27;20050;-55
2023/07/02 07:54:12;;;;;;;27.75;10.80;;;23.00;95.20;;;;;;5092890;28;20020;-55
2023/07/02 07:56:38;;;;;;;15.45;9.48;;;22.90;95.20;;;;;;5111373;28;20059;-55
2023/07/02 07:59:04;;;;;;;14.07;9.55;;;22.80;95.10;;;;;;5112415;28;20028;-54
2023/07/02 08:01:29;;;;;;;18.60;10.48;;;22.70;95.10;;;;;;5112431;28;20016;-53
2023/07/02 08:03:55;;;;;;;15.82;9.95;;;22.40;95.50;;;;;;5112416;28;20391;-52
2023/07/02 08:06:20;;;;;;;15.27;10.10;;;22.30;95.80;;;;;;5111455;28;20030;-53
2023/07/02 08:08:46;;;;;;;15.45;9.32;;;22.00;96.20;;;;;;5112664;28;20184;-52
2023/07/02 08:11:12;;;;;;;14.48;9.23;;;21.60;96.30;;;;;;5112237;28;20027;-55
2023/07/02 08:13:37;;;;;;;18.05;9.88;;;21.50;97.00;;;;;;5112082;28;20043;-50
2023/07/02 08:16:03;;;;;;;18.08;9.25;;;21.60;97.20;;;;;;5110813;28;20406;-56
2023/07/02 08:18:28;;;;;;;15.43;9.02;;;21.60;96.70;;;;;;5111330;28;20035;-53
2023/07/02 08:20:54;;;;;;;18.05;9.55;;;21.60;97.00;;;;;;5112072;28;20031;-52
2023/07/02 08:23:19;;;;;;;16.20;9.35;;;21.80;96.70;;;;;;5110616;28;20031;-51
2023/07/02 08:25:45;;;;;;;11.88;8.05;;;22.30;95.90;;;;;;5090714;28;20107;-52
2023/07/02 08:28:10;;;;;;;20.13;9.65;;;22.20;96.00;;;;;;5091430;28;20480;-53
2023/07/02 08:30:36;;;;;;;20.17;8.95;;;21.90;96.20;;;;;;5116711;27;20080;-50
2023/07/02 08:33:01;;;;;;;13.43;7.85;;;21.80;96.40;;;;;;5132628;27;20643;-52
2023/07/02 08:35:27;;;;;;;16.38;10.15;;;21.60;96.50;;;;;;5130810;27;20062;-51
2023/07/02 08:37:52;;;;;;;14.57;8.50;;;21.60;96.80;;;;;;5112024;28;20027;-55
2023/07/02 08:40:19;;;;;;;15.57;8.57;;;21.60;96.70;;;;;;5093877;28;20028;-52
2023/07/02 08:42:48;;;;;;;14.02;9.88;;;22.00;96.30;;;;;;5111647;28;20032;-55
2023/07/02 08:45:16;;;;;;;16.20;8.50;;;22.70;95.80;;;;;;5110554;28;20028;-54
2023/07/02 08:47:41;;;;;;;17.92;8.30;;;23.30;94.20;;;;;;5111824;28;20020;-55
2023/07/02 08:50:07;;;;;;;13.80;8.35;;;23.60;93.70;;;;;;5111740;28;20028;-54
2023/07/02 08:52:33;;;;;;;14.23;8.32;;;23.60;93.30;;;;;;5111723;28;20016;-55
2023/07/02 08:54:58;;;;;;;14.07;9.10;;;23.30;92.60;;;;;;5111715;28;20054;-51
2023/07/02 08:57:24;;;;;;;13.00;7.57;;;22.70;93.10;;;;;;5111271;28;20108;-51
2023/07/02 08:59:51;;;;;;;14.82;8.50;;;22.80;93.70;;;;;;5113329;27;20039;-52
2023/07/02 09:02:17;;;;;;;13.65;8.68;;;23.10;93.50;;;;;;5115783;28;20028;-50
2023/07/02 09:04:42;;;;;;;16.45;8.32;;;23.50;93.60;;;;;;5115337;28;20039;-54
2023/07/02 09:07:10;;;;;;;15.90;8.85;;;23.80;92.20;;;;;;5115310;28;20012;-51
2023/07/02 09:09:46;;;;;;;24.05;8.40;;;23.90;92.10;;;;;;5115880;28;20028;-52
2023/07/02 09:12:34;;;;;;;12.90;7.93;;;24.20;92.40;;;;;;5115464;28;20043;-54
2023/07/02 09:15:03;;;;;;;11.63;7.13;;;24.40;91.70;;;;;;5111247;28;20545;-54
2023/07/02 09:17:35;;;;;;;11.90;7.63;;;24.70;91.00;;;;;;5115186;28;20027;-53
2023/07/02 09:20:04;;;;;;;16.98;7.93;;;24.70;90.70;;;;;;5115356;28;20035;-54
2023/07/02 09:22:30;;;;;;;13.05;7.80;;;24.30;90.00;;;;;;5115530;28;20201;-54
2023/07/02 09:25:00;;;;;;;11.27;7.47;;;23.70;90.70;;;;;;5114941;28;20077;-56
2023/07/02 09:27:42;;;;;;;12.05;7.35;;;23.50;91.50;;;;;;5096774;28;20509;-54
2023/07/02 09:30:15;;;;;;;11.15;7.22;;;23.50;90.90;;;;;;5116677;27;20020;-57
2023/07/02 09:32:41;;;;;;;15.70;7.22;;;23.40;90.40;;;;;;5118122;27;20020;-54
2023/07/02 09:35:07;;;;;;;13.98;8.40;;;23.30;90.70;;;;;;5114494;28;20098;-57
2023/07/02 09:37:33;;;;;;;12.15;7.45;;;22.90;91.00;;;;;;5115369;28;20112;-55
2023/07/02 09:40:00;;;;;;;11.57;6.85;;;22.80;91.20;;;;;;5115448;28;20031;-52
2023/07/02 09:42:26;;;;;;;10.45;7.40;;;22.60;91.50;;;;;;5115253;28;20024;-55
2023/07/02 09:44:54;;;;;;;10.95;8.23;;;22.60;92.10;;;;;;5111659;28;20028;-52
2023/07/02 09:47:21;;;;;;;13.95;8.50;;;22.60;91.80;;;;;;5108502;28;20020;-56
2023/07/02 09:50:05;;;;;;;14.80;8.45;;;22.50;91.80;;;;;;5114892;28;20015;-54
2023/07/02 09:52:31;;;;;;;16.38;9.10;;;22.50;92.00;;;;;;5114726;28;20031;-54
2023/07/02 09:54:56;;;;;;;12.50;8.68;;;22.40;92.20;;;;;;5114280;28;20052;-54
2023/07/02 09:57:22;;;;;;;17.70;10.82;;;22.30;92.80;;;;;;5114611;28;20496;-55
2023/07/02 09:59:48;;;;;;;16.17;8.88;;;22.00;92.90;;;;;;5115066;28;20035;-52
2023/07/02 10:02:14;;;;;;;16.35;9.75;;;21.90;93.20;;;;;;5114953;28;20073;-53
2023/07/02 10:04:45;;;;;;;14.35;9.15;;;22.00;93.60;;;;;;5114074;28;20542;-52
2023/07/02 10:07:11;;;;;;;19.92;10.10;;;22.30;93.90;;;;;;5114290;27;20063;-56
2023/07/02 10:09:39;;;;;;;25.80;10.32;;;22.50;93.00;;;;;;5106851;28;20031;-53
2023/07/02 10:12:27;;;;;;;16.52;9.68;;;22.60;92.60;;;;;;5112382;28;20023;-53
2023/07/02 10:14:54;;;;;;;18.17;9.93;;;22.60;92.50;;;;;;5110921;28;20375;-51
2023/07/02 10:17:38;;;;;;;14.93;9.63;;;22.70;92.90;;;;;;5112875;28;20024;-49
2023/07/02 10:20:07;;;;;;;16.50;9.02;;;22.70;92.60;;;;;;5114554;28;20023;-52
2023/07/02 10:22:47;;;;;;;15.45;9.63;;;22.50;92.70;;;;;;5116761;27;20031;-56
2023/07/02 10:25:25;;;;;;;14.90;9.55;;;22.40;92.90;;;;;;5112287;28;20023;-54
2023/07/02 10:27:50;;;;;;;22.92;11.18;;;22.20;92.90;;;;;;5115641;27;20046;-55
2023/07/02 10:30:15;;;;;;;15.95;9.52;;;22.30;94.00;;;;;;5114273;28;20031;-51
2023/07/02 10:32:41;;;;;;;21.02;10.38;;;22.50;92.90;;;;;;5113547;28;20036;-51
2023/07/02 10:35:17;;;;;;;20.23;11.57;;;22.50;91.90;;;;;;5112835;28;20503;-52
2023/07/02 10:37:43;;;;;;;17.52;9.80;;;22.50;92.10;;;;;;5113884;28;20104;-50
2023/07/02 10:40:09;;;;;;;18.17;10.90;;;22.40;92.50;;;;;;5113582;28;20066;-51
2023/07/02 10:42:46;;;;;;;17.70;10.73;;;22.10;93.10;;;;;;5091459;28;20406;-49
2023/07/02 10:45:12;;;;;;;18.40;9.75;;;21.90;92.70;;;;;;5112300;28;20019;-52
2023/07/02 10:47:41;;;;;;;19.65;11.05;;;22.00;92.80;;;;;;5112955;28;20028;-55
2023/07/02 10:50:20;;;;;;;19.08;10.60;;;22.10;93.20;;;;;;5112272;28;20390;-54
2023/07/02 10:52:47;;;;;;;23.95;11.75;;;22.40;92.70;;;;;;5095162;28;20404;-49
2023/07/02 10:55:23;;;;;;;17.75;10.18;;;22.50;92.20;;;;;;5109119;28;20566;-54
2023/07/02 10:57:50;;;;;;;15.93;10.65;;;22.60;92.30;;;;;;5109196;28;20118;-52
2023/07/02 11:00:17;;;;;;;18.52;10.30;;;22.60;92.50;;;;;;5112755;28;20024;-52
2023/07/02 11:02:43;;;;;;;20.60;11.15;;;22.60;92.30;;;;;;5113354;28;20031;-51
2023/07/02 11:05:12;;;;;;;19.60;10.77;;;22.70;92.40;;;;;;5112335;28;20059;-52
2023/07/02 11:07:38;;;;;;;15.25;10.38;;;22.70;91.30;;;;;;5113097;28;20443;-53
2023/07/02 11:10:05;;;;;;;20.33;11.10;;;22.60;91.50;;;;;;5112688;28;20509;-54
2023/07/02 11:12:31;;;;;;;21.20;10.60;;;22.60;91.90;;;;;;5094562;28;20035;-53
2023/07/02 11:15:17;;;;;;;25.10;13.02;;;22.70;91.80;;;;;;5112704;28;20027;-55
2023/07/02 11:17:43;;;;;;;22.45;13.30;;;22.80;92.00;;;;;;5113530;28;20031;-53
2023/07/02 11:20:10;;;;;;;41.45;25.52;;;23.00;91.90;;;;;;5112555;28;20398;-54
2023/07/02 11:22:36;;;;;;;23.65;11.57;;;23.30;91.60;;;;;;5113254;27;20558;-56
2023/07/02 11:25:22;;;;;;;18.10;11.25;;;23.40;90.70;;;;;;5130476;27;20031;-51
2023/07/02 11:27:48;;;;;;;20.67;11.88;;;23.40;91.00;;;;;;5133348;27;20031;-56
2023/07/02 11:30:14;;;;;;;17.10;11.43;;;23.40;91.00;;;;;;5115983;27;20143;-53
2023/07/02 11:32:53;;;;;;;17.42;11.70;;;23.50;91.60;;;;;;5112724;28;20043;-53
2023/07/02 11:35:20;;;;;;;16.85;10.68;;;23.50;90.20;;;;;;5112439;28;20104;-59
2023/07/02 11:37:46;;;;;;;18.27;12.23;;;23.30;90.60;;;;;;5111658;28;20027;-48
2023/07/02 11:40:13;;;;;;;22.73;13.40;;;23.30;90.60;;;;;;5089207;28;20035;-51
2023/07/02 11:42:38;;;;;;;20.48;11.70;;;23.30;91.40;;;;;;5112486;28;20494;-50
2023/07/02 11:45:04;;;;;;;17.40;11.82;;;23.40;90.90;;;;;;5110201;28;20035;-54
2023/07/02 11:47:30;;;;;;;19.45;12.50;;;23.30;90.50;;;;;;5111213;28;20038;-49
2023/07/02 11:49:55;;;;;;;22.50;12.10;;;23.20;90.70;;;;;;5112479;28;20511;-51
2023/07/02 11:52:21;;;;;;;20.17;11.25;;;23.10;91.00;;;;;;5108348;28;20012;-51
2023/07/02 11:54:47;;;;;;;20.33;12.43;;;22.90;91.50;;;;;;5111439;28;20047;-51
2023/07/02 11:57:13;;;;;;;19.58;11.43;;;22.80;91.90;;;;;;5112008;28;20114;-54
2023/07/02 11:59:38;;;;;;;20.50;11.45;;;22.70;91.50;;;;;;5111745;28;20115;-56
2023/07/02 12:02:05;;;;;;;19.48;12.27;;;22.70;91.50;;;;;;5109464;28;20020;-54
2023/07/02 12:04:30;;;;;;;20.58;12.20;;;22.40;91.60;;;;;;5111605;28;20027;-54
2023/07/02 12:06:56;;;;;;;22.88;12.18;;;22.40;91.70;;;;;;5110976;28;20380;-55
2023/07/02 12:09:21;;;;;;;26.77;11.32;;;22.50;92.00;;;;;;5093583;28;20531;-53
2023/07/02 12:11:47;;;;;;;21.77;12.00;;;22.60;91.80;;;;;;5104952;28;20105;-52
2023/07/02 12:14:13;;;;;;;22.85;13.05;;;22.70;91.90;;;;;;5108522;28;20030;-54
2023/07/02 12:16:38;;;;;;;24.95;13.02;;;22.70;91.70;;;;;;5096605;28;20441;-55
2023/07/02 12:19:04;;;;;;;27.48;12.90;;;22.60;91.60;;;;;;5112056;28;20423;-51
2023/07/02 12:21:29;;;;;;;23.20;12.80;;;22.60;91.70;;;;;;5112415;27;20141;-53
2023/07/02 12:23:55;;;;;;;22.35;12.82;;;22.60;91.70;;;;;;5112365;28;20028;-53
2023/07/02 12:26:20;;;;;;;22.77;13.27;;;22.60;91.50;;;;;;5110918;28;20032;-52
2023/07/02 12:28:46;;;;;;;26.52;13.05;;;22.60;91.30;;;;;;5112176;28;20055;-51
2023/07/02 12:31:12;;;;;;;21.48;13.15;;;22.60;91.40;;;;;;5111007;28;20437;-51
2023/07/02 12:33:38;;;;;;;22.55;13.25;;;22.50;91.20;;;;;;5111048;28;20058;-46
2023/07/02 12:36:04;;;;;;;22.17;13.48;;;22.70;91.30;;;;;;5111153;28;20047;-52